sensor_id;sensor_type;location;lat;lon;timestamp;pressure;altitude;pressure_sealevel;temperature;humidity
1207;BME280;593;53.184;8.216;2022-11-09T00:01:40;100105.50;;;15.21;100.00
1207;BME280;593;53.184;8.216;2022-11-09T00:04:06;100101.31;;;15.23;100.00
1207;BME280;593;53.184;8.216;2022-11-09T00:06:33;100093.09;;;15.23;100.00
1207;BME280;593;53.184;8.216;2022-11-09T00:09:01;100098.09;;;15.21;100.00
1207;BME280;593;53.184;8.216;2022-11-09T00:11:26;100088.75;;;15.22;100.00
1207;BME280;593;53.184;8.216;2022-11-09T00:13:52;100093.75;;;15.20;100.00
1207;BME280;593;53.184;8.216;2022-11-09T00:16:19;100093.09;;;15.23;100.00
1207;BME280;593;53.184;8.216;2022-11-09T00:18:45;100082.97;;;15.15;100.00
1207;BME280;593;53.184;8.216;2022-11-09T00:21:18;100090.22;;;15.20;100.00
1207;BME280;593;53.184;8.216;2022-11-09T00:23:46;100083.59;;;15.21;100.00
1207;BME280;593;53.184;8.216;2022-11-09T00:26:13;100084.25;;;15.18;100.00
1207;BME280;593;53.184;8.216;2022-11-09T00:28:39;100087.00;;;15.18;100.00
1207;BME280;593;53.184;8.216;2022-11-09T00:31:16;100081.53;;;15.18;100.00
1207;BME280;593;53.184;8.216;2022-11-09T00:33:42;100075.22;;;15.17;100.00
1207;BME280;593;53.184;8.216;2022-11-09T00:36:10;100084.25;;;15.18;100.00
1207;BME280;593;53.184;8.216;2022-11-09T00:38:37;100074.75;;;15.15;100.00
1207;BME280;593;53.184;8.216;2022-11-09T00:41:06;100078.63;;;15.14;100.00
1207;BME280;593;53.184;8.216;2022-11-09T00:43:32;100066.19;;;15.17;100.00
1207;BME280;593;53.184;8.216;2022-11-09T00:45:58;100055.41;;;15.12;100.00
1207;BME280;593;53.184;8.216;2022-11-09T00:48:24;100066.84;;;15.14;100.00
1207;BME280;593;53.184;8.216;2022-11-09T00:50:53;100066.03;;;15.13;100.00
1207;BME280;593;53.184;8.216;2022-11-09T00:53:19;100059.44;;;15.14;100.00
1207;BME280;593;53.184;8.216;2022-11-09T00:56:06;100065.25;;;15.13;100.00
1207;BME280;593;53.184;8.216;2022-11-09T00:58:33;100064.09;;;15.14;100.00
1207;BME280;593;53.184;8.216;2022-11-09T01:03:32;100068.53;;;14.98;100.00
1207;BME280;593;53.184;8.216;2022-11-09T01:06:00;100078.03;;;15.00;100.00
1207;BME280;593;53.184;8.216;2022-11-09T01:08:26;100073.84;;;14.94;100.00
1207;BME280;593;53.184;8.216;2022-11-09T01:10:51;100082.53;;;14.96;100.00
1207;BME280;593;53.184;8.216;2022-11-09T01:13:17;100082.53;;;14.96;100.00
1207;BME280;593;53.184;8.216;2022-11-09T01:15:46;100074.47;;;15.00;100.00
1207;BME280;593;53.184;8.216;2022-11-09T01:18:13;100085.72;;;14.98;100.00
1207;BME280;593;53.184;8.216;2022-11-09T01:20:40;100078.03;;;15.00;100.00
1207;BME280;593;53.184;8.216;2022-11-09T01:23:06;100072.03;;;14.98;100.00
1207;BME280;593;53.184;8.216;2022-11-09T01:25:32;100067.25;;;14.95;100.00
1207;BME280;593;53.184;8.216;2022-11-09T01:27:58;100075.94;;;14.97;100.00
1207;BME280;593;53.184;8.216;2022-11-09T01:30:23;100074.78;;;14.98;100.00
1207;BME280;593;53.184;8.216;2022-11-09T01:32:49;100073.66;;;14.99;100.00
1207;BME280;593;53.184;8.216;2022-11-09T01:35:14;100071.41;;;15.01;100.00
1207;BME280;593;53.184;8.216;2022-11-09T01:37:40;100082.34;;;15.01;100.00
1207;BME280;593;53.184;8.216;2022-11-09T01:40:05;100073.66;;;14.99;100.00
1207;BME280;593;53.184;8.216;2022-11-09T01:42:34;100075.75;;;15.02;100.00
1207;BME280;593;53.184;8.216;2022-11-09T01:47:46;100077.22;;;15.00;100.00
1207;BME280;593;53.184;8.216;2022-11-09T01:50:17;100069.97;;;14.95;100.00
1207;BME280;593;53.184;8.216;2022-11-09T01:52:46;100073.19;;;14.97;100.00
1207;BME280;593;53.184;8.216;2022-11-09T01:55:15;100078.66;;;14.97;100.00
1207;BME280;593;53.184;8.216;2022-11-09T01:57:54;100072.84;;;14.99;100.00
1207;BME280;593;53.184;8.216;2022-11-09T02:00:21;100071.09;;;14.94;100.00
1207;BME280;593;53.184;8.216;2022-11-09T02:02:54;100068.03;;;14.96;100.00
1207;BME280;593;53.184;8.216;2022-11-09T02:05:24;100065.28;;;14.96;100.00
1207;BME280;593;53.184;8.216;2022-11-09T02:07:51;100073.84;;;14.94;100.00
1207;BME280;593;53.184;8.216;2022-11-09T02:10:28;100067.88;;;14.92;100.00
1207;BME280;593;53.184;8.216;2022-11-09T02:12:56;100061.25;;;14.93;100.00
1207;BME280;593;53.184;8.216;2022-11-09T02:15:23;100063.22;;;14.93;100.00
1207;BME280;593;53.184;8.216;2022-11-09T02:17:51;100056.59;;;14.94;100.00
1207;BME280;593;53.184;8.216;2022-11-09T02:20:18;100056.59;;;14.94;100.00
1207;BME280;593;53.184;8.216;2022-11-09T02:22:44;100055.78;;;14.93;100.00
1207;BME280;593;53.184;8.216;2022-11-09T02:25:12;100054.03;;;14.89;100.00
1207;BME280;593;53.184;8.216;2022-11-09T02:27:39;100046.16;;;14.87;100.00
1207;BME280;593;53.184;8.216;2022-11-09T02:30:06;100055.19;;;14.88;100.00
1207;BME280;593;53.184;8.216;2022-11-09T02:32:32;100052.28;;;14.84;100.00
1207;BME280;593;53.184;8.216;2022-11-09T02:34:57;100057.09;;;14.87;100.00
1207;BME280;593;53.184;8.216;2022-11-09T02:37:34;100067.72;;;14.89;100.00
1207;BME280;593;53.184;8.216;2022-11-09T02:40:05;100069.66;;;14.88;100.00
1207;BME280;593;53.184;8.216;2022-11-09T02:42:31;100057.75;;;14.84;100.00
1207;BME280;593;53.184;8.216;2022-11-09T02:44:58;100063.38;;;14.88;100.00
1207;BME280;593;53.184;8.216;2022-11-09T02:47:24;100059.50;;;14.89;100.00
1207;BME280;593;53.184;8.216;2022-11-09T02:49:49;100050.16;;;14.90;100.00
1207;BME280;593;53.184;8.216;2022-11-09T02:52:15;100060.31;;;14.89;100.00
1207;BME280;593;53.184;8.216;2022-11-09T02:54:41;100050.31;;;14.93;100.00
1207;BME280;593;53.184;8.216;2022-11-09T02:57:06;100047.25;;;14.95;100.00
1207;BME280;593;53.184;8.216;2022-11-09T02:59:31;100041.78;;;14.95;100.00
1207;BME280;593;53.184;8.216;2022-11-09T03:01:57;100035.50;;;14.94;100.00
1207;BME280;593;53.184;8.216;2022-11-09T03:04:22;100031.63;;;14.95;100.00
1207;BME280;593;53.184;8.216;2022-11-09T03:06:48;100037.13;;;14.95;100.00
1207;BME280;593;53.184;8.216;2022-11-09T03:09:13;100034.38;;;14.95;100.00
1207;BME280;593;53.184;8.216;2022-11-09T03:11:40;100041.59;;;15.00;100.00
1207;BME280;593;53.184;8.216;2022-11-09T03:14:06;100041.25;;;15.01;100.00
1207;BME280;593;53.184;8.216;2022-11-09T03:16:34;100032.56;;;14.99;100.00
1207;BME280;593;53.184;8.216;2022-11-09T03:18:59;100040.97;;;15.03;100.00
1207;BME280;593;53.184;8.216;2022-11-09T03:21:25;100058.16;;;15.03;100.00
1207;BME280;593;53.184;8.216;2022-11-09T03:23:51;100060.91;;;15.03;100.00
1207;BME280;593;53.184;8.216;2022-11-09T03:26:16;100062.53;;;15.04;100.00
1207;BME280;593;53.184;8.216;2022-11-09T03:28:42;100059.78;;;15.04;100.00
1207;BME280;593;53.184;8.216;2022-11-09T03:31:07;100063.34;;;15.05;100.00
1207;BME280;593;53.184;8.216;2022-11-09T03:33:33;100058.69;;;15.05;100.00
1207;BME280;593;53.184;8.216;2022-11-09T03:35:58;100061.41;;;15.05;100.00
1207;BME280;593;53.184;8.216;2022-11-09T03:38:24;100071.56;;;15.05;100.00
1207;BME280;593;53.184;8.216;2022-11-09T03:40:49;100065.59;;;15.03;100.00
1207;BME280;593;53.184;8.216;2022-11-09T03:43:14;100069.94;;;15.04;100.00
1207;BME280;593;53.184;8.216;2022-11-09T03:45:40;100077.84;;;15.05;100.00
1207;BME280;593;53.184;8.216;2022-11-09T03:48:05;100071.88;;;15.03;100.00
1207;BME280;593;53.184;8.216;2022-11-09T03:50:32;100070.28;;;15.02;100.00
1207;BME280;593;53.184;8.216;2022-11-09T03:52:59;100066.56;;;15.07;100.00
1207;BME280;593;53.184;8.216;2022-11-09T03:55:25;100069.94;;;15.04;100.00
1207;BME280;593;53.184;8.216;2022-11-09T03:57:51;100073.31;;;15.01;100.00
1207;BME280;593;53.184;8.216;2022-11-09T04:00:19;100066.25;;;15.00;100.00
1207;BME280;593;53.184;8.216;2022-11-09T04:02:44;100069.31;;;14.98;100.00
1207;BME280;593;53.184;8.216;2022-11-09T04:05:10;100086.72;;;15.02;100.00
1207;BME280;593;53.184;8.216;2022-11-09T04:07:36;100087.00;;;15.01;100.00
1207;BME280;593;53.184;8.216;2022-11-09T04:10:03;100081.41;;;14.97;100.00
1207;BME280;593;53.184;8.216;2022-11-09T04:12:29;100066.09;;;14.96;100.00
1207;BME280;593;53.184;8.216;2022-11-09T04:14:54;100072.03;;;14.98;100.00
1207;BME280;593;53.184;8.216;2022-11-09T04:17:20;100071.56;;;14.96;100.00
1207;BME280;593;53.184;8.216;2022-11-09T04:19:45;100078.03;;;15.00;100.00
1207;BME280;593;53.184;8.216;2022-11-09T04:22:10;100072.84;;;14.99;100.00
1207;BME280;593;53.184;8.216;2022-11-09T04:24:36;100080.41;;;15.02;100.00
1207;BME280;593;53.184;8.216;2022-11-09T04:27:02;100073.81;;;15.03;100.00
1207;BME280;593;53.184;8.216;2022-11-09T04:29:27;100083.63;;;15.04;100.00
1207;BME280;593;53.184;8.216;2022-11-09T04:31:52;100084.78;;;15.03;100.00
1207;BME280;593;53.184;8.216;2022-11-09T04:34:18;100077.03;;;15.05;100.00
1207;BME280;593;53.184;8.216;2022-11-09T04:36:43;100065.28;;;15.04;100.00
1207;BME280;593;53.184;8.216;2022-11-09T04:39:09;100060.25;;;15.06;100.00
1207;BME280;593;53.184;8.216;2022-11-09T04:41:34;100080.59;;;15.05;100.00
1207;BME280;593;53.184;8.216;2022-11-09T04:44:00;100076.41;;;14.99;100.00
1207;BME280;593;53.184;8.216;2022-11-09T04:46:26;100096.69;;;15.07;100.00
1207;BME280;593;53.184;8.216;2022-11-09T04:48:52;100087.66;;;15.06;100.00
1207;BME280;593;53.184;8.216;2022-11-09T04:54:04;100092.50;;;15.09;100.00
1207;BME280;593;53.184;8.216;2022-11-09T04:56:29;100082.66;;;15.08;100.00
1207;BME280;593;53.184;8.216;2022-11-09T04:58:54;100086.06;;;15.05;100.00
1207;BME280;593;53.184;8.216;2022-11-09T05:01:20;100078.31;;;15.07;100.00
1207;BME280;593;53.184;8.216;2022-11-09T05:03:45;100100.22;;;15.07;100.00
1207;BME280;593;53.184;8.216;2022-11-09T05:06:10;100094.59;;;15.04;100.00
1207;BME280;593;53.184;8.216;2022-11-09T05:08:54;100084.16;;;14.97;100.00
1207;BME280;593;53.184;8.216;2022-11-09T05:11:21;100082.06;;;14.94;100.00
1207;BME280;593;53.184;8.216;2022-11-09T05:13:47;100078.38;;;14.90;100.00
1207;BME280;593;53.184;8.216;2022-11-09T05:16:12;100091.88;;;14.95;100.00
1207;BME280;593;53.184;8.216;2022-11-09T05:18:38;100099.00;;;14.88;100.00
1207;BME280;593;53.184;8.216;2022-11-09T05:21:04;100107.50;;;14.95;100.00
1207;BME280;593;53.184;8.216;2022-11-09T05:23:29;100109.91;;;14.96;100.00
1207;BME280;593;53.184;8.216;2022-11-09T05:26:13;100109.25;;;14.99;100.00
1207;BME280;593;53.184;8.216;2022-11-09T05:28:39;100112.00;;;14.99;100.00
1207;BME280;593;53.184;8.216;2022-11-09T05:31:05;100089.50;;;14.85;100.00
1207;BME280;593;53.184;8.216;2022-11-09T05:33:30;100099.75;;;14.97;100.00
1207;BME280;593;53.184;8.216;2022-11-09T05:35:56;100103.97;;;15.03;100.00
1207;BME280;593;53.184;8.216;2022-11-09T05:38:22;100102.81;;;15.04;100.00
1207;BME280;593;53.184;8.216;2022-11-09T05:40:52;100109.56;;;15.06;100.00
1207;BME280;593;53.184;8.216;2022-11-09T05:43:17;100104.44;;;15.05;100.00
1207;BME280;593;53.184;8.216;2022-11-09T05:45:43;100093.13;;;15.06;100.00
1207;BME280;593;53.184;8.216;2022-11-09T05:48:10;100102.16;;;15.07;100.00
1207;BME280;593;53.184;8.216;2022-11-09T05:50:36;100103.78;;;15.08;100.00
1207;BME280;593;53.184;8.216;2022-11-09T05:53:02;100099.44;;;14.98;100.00
1207;BME280;593;53.184;8.216;2022-11-09T05:55:27;100111.66;;;15.01;100.00
1207;BME280;593;53.184;8.216;2022-11-09T05:57:53;100105.06;;;15.02;100.00
1207;BME280;593;53.184;8.216;2022-11-09T06:00:19;100112.94;;;15.03;100.00
1207;BME280;593;53.184;8.216;2022-11-09T06:02:44;100115.22;;;15.01;100.00
1207;BME280;593;53.184;8.216;2022-11-09T06:05:10;100124.06;;;14.98;100.00
1207;BME280;593;53.184;8.216;2022-11-09T06:07:36;100110.72;;;14.88;100.00
1207;BME280;593;53.184;8.216;2022-11-09T06:10:03;100123.13;;;14.94;100.00
1207;BME280;593;53.184;8.216;2022-11-09T06:12:29;100118.78;;;14.85;100.00
1207;BME280;593;53.184;8.216;2022-11-09T06:14:55;100126.69;;;14.95;100.00
1207;BME280;593;53.184;8.216;2022-11-09T06:17:20;100124.88;;;14.99;100.00
1207;BME280;593;53.184;8.216;2022-11-09T06:19:46;100125.22;;;14.97;100.00
1207;BME280;593;53.184;8.216;2022-11-09T06:22:11;100132.28;;;14.98;100.00
1207;BME280;593;53.184;8.216;2022-11-09T06:24:38;100142.13;;;14.99;100.00
1207;BME280;593;53.184;8.216;2022-11-09T06:27:04;100148.72;;;14.98;100.00
1207;BME280;593;53.184;8.216;2022-11-09T06:29:30;100138.91;;;14.97;100.00
1207;BME280;593;53.184;8.216;2022-11-09T06:31:56;100145.38;;;14.93;100.00
1207;BME280;593;53.184;8.216;2022-11-09T06:34:22;100141.81;;;14.92;100.00
1207;BME280;593;53.184;8.216;2022-11-09T06:36:48;100144.22;;;14.94;100.00
1207;BME280;593;53.184;8.216;2022-11-09T06:39:13;100148.91;;;14.93;100.00
1207;BME280;593;53.184;8.216;2022-11-09T06:41:39;100144.09;;;14.90;100.00
1207;BME280;593;53.184;8.216;2022-11-09T06:44:05;100157.13;;;14.85;100.00
1207;BME280;593;53.184;8.216;2022-11-09T06:46:31;100154.41;;;14.85;100.00
1207;BME280;593;53.184;8.216;2022-11-09T06:48:58;100145.38;;;14.84;100.00
1207;BME280;593;53.184;8.216;2022-11-09T06:51:23;100156.97;;;14.81;100.00
1207;BME280;593;53.184;8.216;2022-11-09T06:53:49;100160.03;;;14.80;100.00
1207;BME280;593;53.184;8.216;2022-11-09T06:56:14;100149.56;;;14.73;100.00
1207;BME280;593;53.184;8.216;2022-11-09T06:58:40;100163.25;;;14.82;100.00
1207;BME280;593;53.184;8.216;2022-11-09T07:01:10;100173.88;;;14.83;100.00
1207;BME280;593;53.184;8.216;2022-11-09T07:03:35;100174.03;;;14.78;100.00
1207;BME280;593;53.184;8.216;2022-11-09T07:06:06;100174.03;;;14.78;100.00
1207;BME280;593;53.184;8.216;2022-11-09T07:08:33;100183.38;;;14.77;100.00
1207;BME280;593;53.184;8.216;2022-11-09T07:11:06;100188.06;;;14.76;100.00
1207;BME280;593;53.184;8.216;2022-11-09T07:13:32;100184.50;;;14.76;100.00
1207;BME280;593;53.184;8.216;2022-11-09T07:15:58;100190.16;;;14.62;100.00
1207;BME280;593;53.184;8.216;2022-11-09T07:18:23;100200.63;;;14.60;100.00
1207;BME280;593;53.184;8.216;2022-11-09T07:20:49;100202.84;;;14.58;100.00
1207;BME280;593;53.184;8.216;2022-11-09T07:23:14;100193.19;;;14.61;100.00
1207;BME280;593;53.184;8.216;2022-11-09T07:25:39;100194.47;;;14.63;100.00
1207;BME280;593;53.184;8.216;2022-11-09T07:28:07;100193.38;;;14.64;100.00
1207;BME280;593;53.184;8.216;2022-11-09T07:30:34;100191.91;;;14.58;100.00
1207;BME280;593;53.184;8.216;2022-11-09T07:33:00;100199.13;;;14.63;100.00
1207;BME280;593;53.184;8.216;2022-11-09T07:35:26;100194.66;;;14.67;100.00
1207;BME280;593;53.184;8.216;2022-11-09T07:37:52;100192.41;;;14.60;100.00
1207;BME280;593;53.184;8.216;2022-11-09T07:40:18;100211.72;;;14.64;100.00
1207;BME280;593;53.184;8.216;2022-11-09T07:42:43;100216.06;;;14.65;100.00
1207;BME280;593;53.184;8.216;2022-11-09T07:45:09;100212.53;;;14.64;100.00
1207;BME280;593;53.184;8.216;2022-11-09T07:47:35;100206.56;;;14.62;100.00
1207;BME280;593;53.184;8.216;2022-11-09T07:50:00;100209.16;;;14.67;100.00
1207;BME280;593;53.184;8.216;2022-11-09T07:52:25;100217.84;;;14.69;100.00
1207;BME280;593;53.184;8.216;2022-11-09T07:54:51;100210.75;;;14.68;100.00
1207;BME280;593;53.184;8.216;2022-11-09T07:57:16;100223.63;;;14.68;100.00
1207;BME280;593;53.184;8.216;2022-11-09T07:59:41;100214.94;;;14.66;100.00
1207;BME280;593;53.184;8.216;2022-11-09T08:02:08;100224.44;;;14.68;100.00
1207;BME280;593;53.184;8.216;2022-11-09T08:04:33;100220.59;;;14.69;100.00
1207;BME280;593;53.184;8.216;2022-11-09T08:06:58;100220.09;;;14.67;100.00
1207;BME280;593;53.184;8.216;2022-11-09T08:09:24;100212.03;;;14.62;100.00
1207;BME280;593;53.184;8.216;2022-11-09T08:11:49;100213.34;;;14.65;100.00
1207;BME280;593;53.184;8.216;2022-11-09T08:14:15;100219.28;;;14.67;100.00
1207;BME280;593;53.184;8.216;2022-11-09T08:16:40;100232.16;;;14.66;100.00
1207;BME280;593;53.184;8.216;2022-11-09T08:19:06;100229.44;;;14.66;100.00
1207;BME280;593;53.184;8.216;2022-11-09T08:21:35;100219.94;;;14.64;100.00
1207;BME280;593;53.184;8.216;2022-11-09T08:24:00;100223.00;;;14.62;100.00
1207;BME280;593;53.184;8.216;2022-11-09T08:26:25;100218.47;;;14.66;100.00
1207;BME280;593;53.184;8.216;2022-11-09T08:28:51;100226.06;;;14.69;100.00
1207;BME280;593;53.184;8.216;2022-11-09T08:31:16;100221.06;;;14.71;100.00
1207;BME280;593;53.184;8.216;2022-11-09T08:33:41;100217.66;;;14.66;100.00
1207;BME280;593;53.184;8.216;2022-11-09T08:36:11;100221.25;;;14.75;100.00
1207;BME280;593;53.184;8.216;2022-11-09T08:38:36;100228.63;;;14.74;100.00
1207;BME280;593;53.184;8.216;2022-11-09T08:41:02;100224.47;;;14.77;100.00
1207;BME280;593;53.184;8.216;2022-11-09T08:43:27;100234.59;;;14.76;100.00
1207;BME280;593;53.184;8.216;2022-11-09T08:45:53;100236.22;;;14.77;100.00
1207;BME280;593;53.184;8.216;2022-11-09T08:48:18;100237.50;;;14.80;100.00
1207;BME280;593;53.184;8.216;2022-11-09T08:50:43;100244.09;;;14.79;100.00
1207;BME280;593;53.184;8.216;2022-11-09T08:53:09;100250.06;;;14.81;100.00
1207;BME280;593;53.184;8.216;2022-11-09T08:55:34;100233.78;;;14.76;100.00
1207;BME280;593;53.184;8.216;2022-11-09T08:58:01;100252.13;;;14.75;100.00
1207;BME280;593;53.184;8.216;2022-11-09T09:00:27;100250.69;;;14.78;100.00
1207;BME280;593;53.184;8.216;2022-11-09T09:02:52;100249.41;;;14.84;100.00
1207;BME280;593;53.184;8.216;2022-11-09T09:05:18;100252.63;;;14.86;100.00
1207;BME280;593;53.184;8.216;2022-11-09T09:07:43;100248.63;;;14.84;100.00
1207;BME280;593;53.184;8.216;2022-11-09T09:10:09;100245.38;;;14.73;100.00
1207;BME280;593;53.184;8.216;2022-11-09T09:12:35;100251.84;;;14.77;100.00
1207;BME280;593;53.184;8.216;2022-11-09T09:15:00;100253.94;;;14.80;100.00
1207;BME280;593;53.184;8.216;2022-11-09T09:17:25;100251.03;;;14.76;100.00
1207;BME280;593;53.184;8.216;2022-11-09T09:19:51;100250.38;;;14.80;100.00
1207;BME280;593;53.184;8.216;2022-11-09T09:22:17;100253.13;;;14.80;100.00
1207;BME280;593;53.184;8.216;2022-11-09T09:24:42;100268.78;;;14.88;100.00
1207;BME280;593;53.184;8.216;2022-11-09T09:27:07;100243.63;;;14.77;100.00
1207;BME280;593;53.184;8.216;2022-11-09T09:29:33;100279.72;;;14.96;100.00
1207;BME280;593;53.184;8.216;2022-11-09T09:31:59;100273.59;;;14.99;100.00
1207;BME280;593;53.184;8.216;2022-11-09T09:34:24;100263.47;;;15.00;100.00
1207;BME280;593;53.184;8.216;2022-11-09T09:36:53;100282.47;;;15.05;100.00
1207;BME280;593;53.184;8.216;2022-11-09T09:39:18;100280.22;;;15.07;100.00
1207;BME280;593;53.184;8.216;2022-11-09T09:41:53;100274.41;;;15.00;100.00
1207;BME280;593;53.184;8.216;2022-11-09T09:44:29;100280.53;;;14.97;100.00
1207;BME280;593;53.184;8.216;2022-11-09T09:47:19;100273.59;;;14.91;100.00
1207;BME280;593;53.184;8.216;2022-11-09T09:49:54;100287.31;;;14.99;100.00
1207;BME280;593;53.184;8.216;2022-11-09T09:57:36;100295.84;;;15.06;100.00
1207;BME280;593;53.184;8.216;2022-11-09T10:00:06;100293.28;;;15.10;100.00
1207;BME280;593;53.184;8.216;2022-11-09T10:02:35;100295.03;;;15.14;100.00
1207;BME280;593;53.184;8.216;2022-11-09T10:05:11;100293.13;;;15.15;100.00
1207;BME280;593;53.184;8.216;2022-11-09T10:08:30;100309.69;;;15.18;100.00
1207;BME280;593;53.184;8.216;2022-11-09T10:10:37;100308.59;;;15.19;100.00
1207;BME280;593;53.184;8.216;2022-11-09T10:18:59;100302.47;;;15.22;100.00
1207;BME280;593;53.184;8.216;2022-11-09T10:26:51;100293.59;;;15.34;100.00
1207;BME280;593;53.184;8.216;2022-11-09T10:29:27;100293.28;;;15.35;100.00
1207;BME280;593;53.184;8.216;2022-11-09T10:32:15;100282.16;;;15.32;100.00
1207;BME280;593;53.184;8.216;2022-11-09T10:37:13;100295.03;;;15.31;100.00
1207;BME280;593;53.184;8.216;2022-11-09T10:39:48;100296.66;;;15.32;100.00
1207;BME280;593;53.184;8.216;2022-11-09T10:42:14;100289.09;;;15.29;100.00
1207;BME280;593;53.184;8.216;2022-11-09T10:44:39;100299.56;;;15.36;100.00
1207;BME280;593;53.184;8.216;2022-11-09T10:47:13;100292.63;;;15.38;100.00
1207;BME280;593;53.184;8.216;2022-11-09T10:49:39;100287.81;;;15.35;100.00
1207;BME280;593;53.184;8.216;2022-11-09T10:52:31;100288.28;;;15.37;100.00
1207;BME280;593;53.184;8.216;2022-11-09T10:55:24;100287.81;;;15.35;100.00
1207;BME280;593;53.184;8.216;2022-11-09T10:58:25;100290.22;;;15.37;98.76
1207;BME280;593;53.184;8.216;2022-11-09T11:03:23;100290.88;;;15.25;98.06
1207;BME280;593;53.184;8.216;2022-11-09T11:05:56;100277.63;;;15.19;97.75
1207;BME280;593;53.184;8.216;2022-11-09T11:08:26;100281.00;;;15.16;97.81
1207;BME280;593;53.184;8.216;2022-11-09T11:11:05;100285.69;;;15.24;96.70
1207;BME280;593;53.184;8.216;2022-11-09T11:13:31;100280.38;;;15.27;96.65
1207;BME280;593;53.184;8.216;2022-11-09T11:15:57;100276.84;;;15.27;96.36
1207;BME280;593;53.184;8.216;2022-11-09T11:18:24;100289.56;;;15.31;96.00
1207;BME280;593;53.184;8.216;2022-11-09T11:21:12;100284.25;;;15.26;94.99
1207;BME280;593;53.184;8.216;2022-11-09T11:23:38;100277.00;;;15.30;95.30
1207;BME280;593;53.184;8.216;2022-11-09T11:28:55;100287.13;;;15.38;95.80
1207;BME280;593;53.184;8.216;2022-11-09T11:31:22;100284.09;;;15.40;96.66
1207;BME280;593;53.184;8.216;2022-11-09T11:33:47;100264.56;;;15.41;96.01
1207;BME280;593;53.184;8.216;2022-11-09T11:36:34;100282.97;;;15.50;95.88
1207;BME280;593;53.184;8.216;2022-11-09T11:47:17;100264.09;;;15.57;93.98
1207;BME280;593;53.184;8.216;2022-11-09T11:58:08;100275.19;;;15.69;93.87
1207;BME280;593;53.184;8.216;2022-11-09T12:01:05;100271.34;;;15.70;92.75
1207;BME280;593;53.184;8.216;2022-11-09T12:06:19;100274.56;;;15.72;92.20
1207;BME280;593;53.184;8.216;2022-11-09T12:11:49;100282.31;;;15.70;90.69
1207;BME280;593;53.184;8.216;2022-11-09T12:14:38;100271.47;;;15.73;91.95
1207;BME280;593;53.184;8.216;2022-11-09T12:20:51;100256.16;;;15.72;91.12
1207;BME280;593;53.184;8.216;2022-11-09T12:26:24;100256.63;;;15.74;90.88
1207;BME280;593;53.184;8.216;2022-11-09T12:29:11;100257.44;;;15.75;91.61
1207;BME280;593;53.184;8.216;2022-11-09T12:34:49;100260.66;;;15.77;89.90
1207;BME280;593;53.184;8.216;2022-11-09T12:37:28;100257.94;;;15.77;88.72
1207;BME280;593;53.184;8.216;2022-11-09T12:40:20;100267.78;;;15.78;90.62
1207;BME280;593;53.184;8.216;2022-11-09T12:42:52;100270.19;;;15.79;90.73
1207;BME280;593;53.184;8.216;2022-11-09T12:45:32;100274.84;;;15.87;90.29
1207;BME280;593;53.184;8.216;2022-11-09T12:48:12;100267.44;;;15.88;91.23
1207;BME280;593;53.184;8.216;2022-11-09T12:50:40;100273.69;;;15.97;91.31
1207;BME280;593;53.184;8.216;2022-11-09T12:53:06;100280.44;;;15.99;89.10
1207;BME280;593;53.184;8.216;2022-11-09T12:55:40;100283.34;;;16.03;89.89
1207;BME280;593;53.184;8.216;2022-11-09T12:58:06;100278.66;;;16.03;90.28
1207;BME280;593;53.184;8.216;2022-11-09T13:03:16;100291.06;;;16.10;90.42
1207;BME280;593;53.184;8.216;2022-11-09T13:05:44;100289.13;;;16.10;90.11
1207;BME280;593;53.184;8.216;2022-11-09T13:08:18;100279.28;;;16.09;88.79
1207;BME280;593;53.184;8.216;2022-11-09T13:10:44;100281.22;;;16.09;89.03
1207;BME280;593;53.184;8.216;2022-11-09T13:15:36;100281.84;;;16.14;88.80
1207;BME280;593;53.184;8.216;2022-11-09T13:18:25;100277.31;;;16.18;90.21
1207;BME280;593;53.184;8.216;2022-11-09T13:23:48;100276.53;;;16.18;89.42
1207;BME280;593;53.184;8.216;2022-11-09T13:26:50;100257.50;;;16.13;89.83
1207;BME280;593;53.184;8.216;2022-11-09T13:37:50;100286.41;;;16.10;87.87
1207;BME280;593;53.184;8.216;2022-11-09T13:43:00;100289.78;;;16.07;88.66
1207;BME280;593;53.184;8.216;2022-11-09T13:45:33;100292.53;;;16.07;88.32
1207;BME280;593;53.184;8.216;2022-11-09T13:48:00;100294.16;;;16.08;87.04
1207;BME280;593;53.184;8.216;2022-11-09T13:50:29;100280.63;;;16.03;86.90
1207;BME280;593;53.184;8.216;2022-11-09T13:52:56;100279.81;;;16.02;86.03
1207;BME280;593;53.184;8.216;2022-11-09T13:55:30;100291.41;;;16.08;86.34
1207;BME280;593;53.184;8.216;2022-11-09T13:58:09;100288.78;;;16.12;87.11
1207;BME280;593;53.184;8.216;2022-11-09T14:00:37;100270.41;;;16.03;87.55
1207;BME280;593;53.184;8.216;2022-11-09T14:03:16;100288.97;;;16.15;86.54
1207;BME280;593;53.184;8.216;2022-11-09T14:05:43;100296.41;;;16.06;85.81
1207;BME280;593;53.184;8.216;2022-11-09T14:08:18;100294.94;;;16.09;86.29
1207;BME280;593;53.184;8.216;2022-11-09T14:13:36;100300.25;;;16.14;86.86
1207;BME280;593;53.184;8.216;2022-11-09T14:22:13;100302.69;;;16.15;86.33
1207;BME280;593;53.184;8.216;2022-11-09T14:24:40;100296.38;;;16.15;86.07
1207;BME280;593;53.184;8.216;2022-11-09T14:29:36;100308.81;;;16.12;86.61
1207;BME280;593;53.184;8.216;2022-11-09T14:37:44;100313.19;;;16.13;85.82
1207;BME280;593;53.184;8.216;2022-11-09T14:40:24;100333.69;;;16.16;86.42
1207;BME280;593;53.184;8.216;2022-11-09T14:43:39;100332.75;;;16.03;86.23
1207;BME280;593;53.184;8.216;2022-11-09T14:45:52;100327.25;;;16.03;86.35
1207;BME280;593;53.184;8.216;2022-11-09T14:48:20;100323.19;;;16.09;85.95
1207;BME280;593;53.184;8.216;2022-11-09T14:50:46;100334.03;;;16.06;86.48
1207;BME280;593;53.184;8.216;2022-11-09T14:53:25;100336.25;;;16.03;87.34
1207;BME280;593;53.184;8.216;2022-11-09T14:55:53;100330.47;;;16.05;88.52
1207;BME280;593;53.184;8.216;2022-11-09T14:58:20;100329.66;;;16.04;89.76
1207;BME280;593;53.184;8.216;2022-11-09T15:04:10;100334.81;;;16.06;92.07